Kennard, Nebraska
Current Conditions -  °F | °C
As of 4:35 AM on Wednesday 22 Oct 2014 (Local Time) from KBTA Reporting Station
Clear Clear  
Wind Chill: 56°   Ceiling: Unl
Heat Index: 56°   Visibility: 10mi
Dew Point: 45°   Wind: 9mph
Humidity: 66%   Direction: 140°SE
Pressure: 30.08"   Gusts: 17mph
Location:  41.47°N, 96.2°W
Report Text: KBTA 220935Z AUTO 14008G15KT 10SM CLR 13/07 A3008 RMK AO2 T01320070
Loading
Personal Weather Stations






























Interactive Weather Map
Tropical Storm Tracking
New forecast layout! Learn more

10-Day Weather Forecast

Advertisements
Track Severe Weather on mobile